sensor_id;sensor_type;location;lat;lon;timestamp;P1;P2;P0
62054;PMS5003;48653;51.742;-1.256;2022-12-18T00:03:43;68;57;
62054;PMS5003;48653;51.742;-1.256;2022-12-18T00:06:08;65;54;
62054;PMS5003;48653;51.742;-1.256;2022-12-18T00:08:34;54;46;
62054;PMS5003;48653;51.742;-1.256;2022-12-18T00:11:03;60;47;
62054;PMS5003;48653;51.742;-1.256;2022-12-18T00:13:24;51;39;
62054;PMS5003;48653;51.742;-1.256;2022-12-18T00:15:50;56;51;
62054;PMS5003;48653;51.742;-1.256;2022-12-18T00:18:15;67;52;
62054;PMS5003;48653;51.742;-1.256;2022-12-18T00:20:41;70;52;
62054;PMS5003;48653;51.742;-1.256;2022-12-18T00:25:36;54;46;
62054;PMS5003;48653;51.742;-1.256;2022-12-18T00:27:56;56;46;
62054;PMS5003;48653;51.742;-1.256;2022-12-18T00:30:22;53;45;
62054;PMS5003;48653;51.742;-1.256;2022-12-18T00:32:47;51;42;
62054;PMS5003;48653;51.742;-1.256;2022-12-18T00:35:13;58;49;
62054;PMS5003;48653;51.742;-1.256;2022-12-18T00:37:39;61;46;
62054;PMS5003;48653;51.742;-1.256;2022-12-18T00:40:05;60;49;
62054;PMS5003;48653;51.742;-1.256;2022-12-18T00:42:30;59;48;
62054;PMS5003;48653;51.742;-1.256;2022-12-18T00:44:55;64;49;
62054;PMS5003;48653;51.742;-1.256;2022-12-18T00:47:21;72;55;
62054;PMS5003;48653;51.742;-1.256;2022-12-18T00:49:51;62;52;
62054;PMS5003;48653;51.742;-1.256;2022-12-18T00:52:12;69;51;
62054;PMS5003;48653;51.742;-1.256;2022-12-18T00:54:37;57;50;
62054;PMS5003;48653;51.742;-1.256;2022-12-18T00:57:03;64;48;
62054;PMS5003;48653;51.742;-1.256;2022-12-18T00:59:28;59;48;
62054;PMS5003;48653;51.742;-1.256;2022-12-18T01:01:54;64;53;
62054;PMS5003;48653;51.742;-1.256;2022-12-18T01:04:20;63;48;
62054;PMS5003;48653;51.742;-1.256;2022-12-18T01:06:46;72;54;
62054;PMS5003;48653;51.742;-1.256;2022-12-18T01:09:12;63;53;
62054;PMS5003;48653;51.742;-1.256;2022-12-18T01:11:37;63;53;
62054;PMS5003;48653;51.742;-1.256;2022-12-18T01:14:03;56;48;
62054;PMS5003;48653;51.742;-1.256;2022-12-18T01:16:28;61;47;
62054;PMS5003;48653;51.742;-1.256;2022-12-18T01:18:54;61;52;
62054;PMS5003;48653;51.742;-1.256;2022-12-18T01:21:20;65;54;
62054;PMS5003;48653;51.742;-1.256;2022-12-18T01:23:45;65;47;
62054;PMS5003;48653;51.742;-1.256;2022-12-18T01:26:12;71;55;
62054;PMS5003;48653;51.742;-1.256;2022-12-18T01:28:36;72;53;
62054;PMS5003;48653;51.742;-1.256;2022-12-18T01:31:11;75;61;
62054;PMS5003;48653;51.742;-1.256;2022-12-18T01:33:27;67;55;
62054;PMS5003;48653;51.742;-1.256;2022-12-18T01:35:52;70;57;
62054;PMS5003;48653;51.742;-1.256;2022-12-18T01:38:18;67;55;
62054;PMS5003;48653;51.742;-1.256;2022-12-18T01:40:44;71;56;
62054;PMS5003;48653;51.742;-1.256;2022-12-18T01:43:09;63;56;
62054;PMS5003;48653;51.742;-1.256;2022-12-18T01:45:35;70;53;
62054;PMS5003;48653;51.742;-1.256;2022-12-18T01:48:00;59;51;
62054;PMS5003;48653;51.742;-1.256;2022-12-18T01:50:28;72;56;
62054;PMS5003;48653;51.742;-1.256;2022-12-18T01:52:53;57;52;
62054;PMS5003;48653;51.742;-1.256;2022-12-18T01:55:17;73;57;
62054;PMS5003;48653;51.742;-1.256;2022-12-18T01:57:41;68;52;
62054;PMS5003;48653;51.742;-1.256;2022-12-18T02:00:08;67;53;
62054;PMS5003;48653;51.742;-1.256;2022-12-18T02:02:32;68;49;
62054;PMS5003;48653;51.742;-1.256;2022-12-18T02:04:58;60;51;
62054;PMS5003;48653;51.742;-1.256;2022-12-18T02:07:25;68;55;
62054;PMS5003;48653;51.742;-1.256;2022-12-18T02:09:50;55;49;
62054;PMS5003;48653;51.742;-1.256;2022-12-18T02:12:16;62;47;
62054;PMS5003;48653;51.742;-1.256;2022-12-18T02:14:40;65;47;
62054;PMS5003;48653;51.742;-1.256;2022-12-18T02:17:06;56;51;
62054;PMS5003;48653;51.742;-1.256;2022-12-18T02:19:39;69;51;
62054;PMS5003;48653;51.742;-1.256;2022-12-18T02:21:57;67;47;
62054;PMS5003;48653;51.742;-1.256;2022-12-18T02:24:26;64;54;
62054;PMS5003;48653;51.742;-1.256;2022-12-18T02:26:47;70;54;
62054;PMS5003;48653;51.742;-1.256;2022-12-18T02:29:13;67;52;
62054;PMS5003;48653;51.742;-1.256;2022-12-18T02:31:38;55;48;
62054;PMS5003;48653;51.742;-1.256;2022-12-18T02:34:04;64;56;
62054;PMS5003;48653;51.742;-1.256;2022-12-18T02:36:29;56;48;
62054;PMS5003;48653;51.742;-1.256;2022-12-18T02:38:55;66;53;
62054;PMS5003;48653;51.742;-1.256;2022-12-18T02:41:20;65;51;
62054;PMS5003;48653;51.742;-1.256;2022-12-18T02:43:52;71;53;
62054;PMS5003;48653;51.742;-1.256;2022-12-18T02:48:35;57;43;
62054;PMS5003;48653;51.742;-1.256;2022-12-18T02:51:02;61;51;
62054;PMS5003;48653;51.742;-1.256;2022-12-18T02:53:27;64;55;
62054;PMS5003;48653;51.742;-1.256;2022-12-18T02:55:54;64;48;
62054;PMS5003;48653;51.742;-1.256;2022-12-18T02:58:17;62;51;
62054;PMS5003;48653;51.742;-1.256;2022-12-18T03:00:43;70;56;
62054;PMS5003;48653;51.742;-1.256;2022-12-18T03:03:07;64;56;
62054;PMS5003;48653;51.742;-1.256;2022-12-18T03:05:33;77;55;
62054;PMS5003;48653;51.742;-1.256;2022-12-18T03:07:58;63;51;
62054;PMS5003;48653;51.742;-1.256;2022-12-18T03:10:24;63;52;
62054;PMS5003;48653;51.742;-1.256;2022-12-18T03:12:50;69;53;
62054;PMS5003;48653;51.742;-1.256;2022-12-18T03:15:14;67;52;
62054;PMS5003;48653;51.742;-1.256;2022-12-18T03:17:40;60;52;
62054;PMS5003;48653;51.742;-1.256;2022-12-18T03:20:06;59;51;
62054;PMS5003;48653;51.742;-1.256;2022-12-18T03:22:30;69;53;
62054;PMS5003;48653;51.742;-1.256;2022-12-18T03:24:56;71;53;
62054;PMS5003;48653;51.742;-1.256;2022-12-18T03:27:21;62;57;
62054;PMS5003;48653;51.742;-1.256;2022-12-18T03:29:48;66;57;
62054;PMS5003;48653;51.742;-1.256;2022-12-18T03:32:12;78;57;
62054;PMS5003;48653;51.742;-1.256;2022-12-18T03:34:37;82;64;
62054;PMS5003;48653;51.742;-1.256;2022-12-18T03:37:02;75;59;
62054;PMS5003;48653;51.742;-1.256;2022-12-18T03:39:27;76;61;
62054;PMS5003;48653;51.742;-1.256;2022-12-18T03:41:55;75;63;
62054;PMS5003;48653;51.742;-1.256;2022-12-18T03:44:19;82;66;
62054;PMS5003;48653;51.742;-1.256;2022-12-18T03:46:45;82;67;
62054;PMS5003;48653;51.742;-1.256;2022-12-18T03:49:09;94;67;
62054;PMS5003;48653;51.742;-1.256;2022-12-18T03:51:36;84;70;
62054;PMS5003;48653;51.742;-1.256;2022-12-18T03:54:01;80;63;
62054;PMS5003;48653;51.742;-1.256;2022-12-18T03:56:25;84;67;
62054;PMS5003;48653;51.742;-1.256;2022-12-18T03:58:50;76;57;
62054;PMS5003;48653;51.742;-1.256;2022-12-18T04:01:16;68;57;
62054;PMS5003;48653;51.742;-1.256;2022-12-18T04:03:41;80;70;
62054;PMS5003;48653;51.742;-1.256;2022-12-18T04:06:06;80;58;
62054;PMS5003;48653;51.742;-1.256;2022-12-18T04:08:32;80;64;
62054;PMS5003;48653;51.742;-1.256;2022-12-18T04:10:57;78;67;
62054;PMS5003;48653;51.742;-1.256;2022-12-18T04:13:23;78;59;
62054;PMS5003;48653;51.742;-1.256;2022-12-18T04:15:48;85;62;
62054;PMS5003;48653;51.742;-1.256;2022-12-18T04:18:14;78;59;
62054;PMS5003;48653;51.742;-1.256;2022-12-18T04:20:39;81;68;
62054;PMS5003;48653;51.742;-1.256;2022-12-18T04:23:04;80;67;
62054;PMS5003;48653;51.742;-1.256;2022-12-18T04:25:30;76;57;
62054;PMS5003;48653;51.742;-1.256;2022-12-18T04:27:55;89;63;
62054;PMS5003;48653;51.742;-1.256;2022-12-18T04:30:21;81;60;
62054;PMS5003;48653;51.742;-1.256;2022-12-18T04:32:46;67;57;
62054;PMS5003;48653;51.742;-1.256;2022-12-18T04:35:12;89;65;
62054;PMS5003;48653;51.742;-1.256;2022-12-18T04:37:37;71;59;
62054;PMS5003;48653;51.742;-1.256;2022-12-18T04:40:08;69;56;
62054;PMS5003;48653;51.742;-1.256;2022-12-18T04:42:28;76;59;
62054;PMS5003;48653;51.742;-1.256;2022-12-18T04:44:54;85;56;
62054;PMS5003;48653;51.742;-1.256;2022-12-18T04:47:19;71;55;
62054;PMS5003;48653;51.742;-1.256;2022-12-18T04:49:45;66;55;
62054;PMS5003;48653;51.742;-1.256;2022-12-18T04:52:10;67;54;
62054;PMS5003;48653;51.742;-1.256;2022-12-18T04:54:36;72;54;
62054;PMS5003;48653;51.742;-1.256;2022-12-18T04:57:01;62;47;
62054;PMS5003;48653;51.742;-1.256;2022-12-18T04:59:27;66;51;
62054;PMS5003;48653;51.742;-1.256;2022-12-18T05:01:52;72;53;
62054;PMS5003;48653;51.742;-1.256;2022-12-18T05:04:18;70;54;
62054;PMS5003;48653;51.742;-1.256;2022-12-18T05:06:43;71;52;
62054;PMS5003;48653;51.742;-1.256;2022-12-18T05:09:08;66;49;
62054;PMS5003;48653;51.742;-1.256;2022-12-18T05:11:34;52;45;
62054;PMS5003;48653;51.742;-1.256;2022-12-18T05:14:00;63;49;
62054;PMS5003;48653;51.742;-1.256;2022-12-18T05:16:26;67;52;
62054;PMS5003;48653;51.742;-1.256;2022-12-18T05:18:51;65;52;
62054;PMS5003;48653;51.742;-1.256;2022-12-18T05:21:16;66;46;
62054;PMS5003;48653;51.742;-1.256;2022-12-18T05:23:41;65;48;
62054;PMS5003;48653;51.742;-1.256;2022-12-18T05:26:07;59;47;
62054;PMS5003;48653;51.742;-1.256;2022-12-18T05:28:33;57;47;
62054;PMS5003;48653;51.742;-1.256;2022-12-18T05:30:59;49;41;
62054;PMS5003;48653;51.742;-1.256;2022-12-18T05:33:24;60;44;
62054;PMS5003;48653;51.742;-1.256;2022-12-18T05:35:50;62;45;
62054;PMS5003;48653;51.742;-1.256;2022-12-18T05:38:14;59;49;
62054;PMS5003;48653;51.742;-1.256;2022-12-18T05:40:41;57;50;
62054;PMS5003;48653;51.742;-1.256;2022-12-18T05:43:05;56;47;
62054;PMS5003;48653;51.742;-1.256;2022-12-18T05:45:31;65;50;
62054;PMS5003;48653;51.742;-1.256;2022-12-18T05:47:56;64;49;
62054;PMS5003;48653;51.742;-1.256;2022-12-18T05:50:21;53;43;
62054;PMS5003;48653;51.742;-1.256;2022-12-18T05:52:46;59;42;
62054;PMS5003;48653;51.742;-1.256;2022-12-18T05:55:12;55;41;
62054;PMS5003;48653;51.742;-1.256;2022-12-18T05:57:37;56;41;
62054;PMS5003;48653;51.742;-1.256;2022-12-18T06:00:03;58;41;
62054;PMS5003;48653;51.742;-1.256;2022-12-18T06:02:28;55;43;
62054;PMS5003;48653;51.742;-1.256;2022-12-18T06:04:54;54;41;
62054;PMS5003;48653;51.742;-1.256;2022-12-18T06:07:19;46;40;
62054;PMS5003;48653;51.742;-1.256;2022-12-18T06:09:45;43;37;
62054;PMS5003;48653;51.742;-1.256;2022-12-18T06:12:10;46;37;
62054;PMS5003;48653;51.742;-1.256;2022-12-18T06:14:36;39;34;
62054;PMS5003;48653;51.742;-1.256;2022-12-18T06:17:02;38;36;
62054;PMS5003;48653;51.742;-1.256;2022-12-18T06:19:27;44;36;
62054;PMS5003;48653;51.742;-1.256;2022-12-18T06:21:52;51;41;
62054;PMS5003;48653;51.742;-1.256;2022-12-18T06:24:18;47;39;
62054;PMS5003;48653;51.742;-1.256;2022-12-18T06:26:44;43;34;
62054;PMS5003;48653;51.742;-1.256;2022-12-18T06:29:09;46;33;
62054;PMS5003;48653;51.742;-1.256;2022-12-18T06:31:35;42;33;
62054;PMS5003;48653;51.742;-1.256;2022-12-18T06:34:02;36;33;
62054;PMS5003;48653;51.742;-1.256;2022-12-18T06:36:26;45;35;
62054;PMS5003;48653;51.742;-1.256;2022-12-18T06:38:51;40;33;
62054;PMS5003;48653;51.742;-1.256;2022-12-18T06:41:17;45;36;
62054;PMS5003;48653;51.742;-1.256;2022-12-18T06:43:42;40;32;
62054;PMS5003;48653;51.742;-1.256;2022-12-18T06:46:08;45;35;
62054;PMS5003;48653;51.742;-1.256;2022-12-18T06:48:33;44;33;
62054;PMS5003;48653;51.742;-1.256;2022-12-18T06:50:59;52;39;
62054;PMS5003;48653;51.742;-1.256;2022-12-18T06:53:25;45;33;
62054;PMS5003;48653;51.742;-1.256;2022-12-18T06:55:50;49;43;
62054;PMS5003;48653;51.742;-1.256;2022-12-18T06:58:16;44;36;
62054;PMS5003;48653;51.742;-1.256;2022-12-18T07:00:41;43;33;
62054;PMS5003;48653;51.742;-1.256;2022-12-18T07:03:06;43;34;
62054;PMS5003;48653;51.742;-1.256;2022-12-18T07:05:32;39;36;
62054;PMS5003;48653;51.742;-1.256;2022-12-18T07:07:58;48;40;
62054;PMS5003;48653;51.742;-1.256;2022-12-18T07:10:23;36;32;
62054;PMS5003;48653;51.742;-1.256;2022-12-18T07:12:48;55;37;
62054;PMS5003;48653;51.742;-1.256;2022-12-18T07:15:14;38;32;
62054;PMS5003;48653;51.742;-1.256;2022-12-18T07:17:40;38;29;
62054;PMS5003;48653;51.742;-1.256;2022-12-18T07:20:06;44;34;
62054;PMS5003;48653;51.742;-1.256;2022-12-18T07:22:31;39;32;
62054;PMS5003;48653;51.742;-1.256;2022-12-18T07:24:56;46;42;
62054;PMS5003;48653;51.742;-1.256;2022-12-18T07:27:21;34;28;
62054;PMS5003;48653;51.742;-1.256;2022-12-18T07:29:47;50;39;
62054;PMS5003;48653;51.742;-1.256;2022-12-18T07:32:12;48;36;
62054;PMS5003;48653;51.742;-1.256;2022-12-18T07:34:37;45;41;
62054;PMS5003;48653;51.742;-1.256;2022-12-18T07:37:03;42;35;
62054;PMS5003;48653;51.742;-1.256;2022-12-18T07:39:28;40;36;
62054;PMS5003;48653;51.742;-1.256;2022-12-18T07:41:54;43;34;
62054;PMS5003;48653;51.742;-1.256;2022-12-18T07:44:20;54;38;
62054;PMS5003;48653;51.742;-1.256;2022-12-18T07:46:45;41;37;
62054;PMS5003;48653;51.742;-1.256;2022-12-18T07:49:10;37;29;
62054;PMS5003;48653;51.742;-1.256;2022-12-18T07:51:36;48;31;
62054;PMS5003;48653;51.742;-1.256;2022-12-18T07:54:02;38;33;
62054;PMS5003;48653;51.742;-1.256;2022-12-18T07:56:28;40;32;
62054;PMS5003;48653;51.742;-1.256;2022-12-18T07:58:54;46;37;
62054;PMS5003;48653;51.742;-1.256;2022-12-18T08:01:18;48;37;
62054;PMS5003;48653;51.742;-1.256;2022-12-18T08:03:44;42;38;
62054;PMS5003;48653;51.742;-1.256;2022-12-18T08:06:09;39;38;
62054;PMS5003;48653;51.742;-1.256;2022-12-18T08:08:35;48;39;
62054;PMS5003;48653;51.742;-1.256;2022-12-18T08:11:00;42;37;
62054;PMS5003;48653;51.742;-1.256;2022-12-18T08:13:26;39;36;
62054;PMS5003;48653;51.742;-1.256;2022-12-18T08:15:55;44;36;
62054;PMS5003;48653;51.742;-1.256;2022-12-18T08:18:16;43;37;
62054;PMS5003;48653;51.742;-1.256;2022-12-18T08:20:42;55;44;
62054;PMS5003;48653;51.742;-1.256;2022-12-18T08:23:08;44;35;
62054;PMS5003;48653;51.742;-1.256;2022-12-18T08:27:58;51;42;
62054;PMS5003;48653;51.742;-1.256;2022-12-18T08:30:24;48;41;
62054;PMS5003;48653;51.742;-1.256;2022-12-18T08:32:50;49;41;
62054;PMS5003;48653;51.742;-1.256;2022-12-18T08:35:15;44;39;
62054;PMS5003;48653;51.742;-1.256;2022-12-18T08:37:40;41;32;
62054;PMS5003;48653;51.742;-1.256;2022-12-18T08:40:07;41;32;
62054;PMS5003;48653;51.742;-1.256;2022-12-18T08:42:34;47;37;
62054;PMS5003;48653;51.742;-1.256;2022-12-18T08:44:57;50;39;
62054;PMS5003;48653;51.742;-1.256;2022-12-18T08:47:23;49;37;
62054;PMS5003;48653;51.742;-1.256;2022-12-18T08:49:48;50;38;
62054;PMS5003;48653;51.742;-1.256;2022-12-18T08:52:13;41;36;
62054;PMS5003;48653;51.742;-1.256;2022-12-18T08:54:38;44;35;
62054;PMS5003;48653;51.742;-1.256;2022-12-18T08:57:04;52;36;
62054;PMS5003;48653;51.742;-1.256;2022-12-18T08:59:29;49;36;
62054;PMS5003;48653;51.742;-1.256;2022-12-18T09:01:55;44;36;
62054;PMS5003;48653;51.742;-1.256;2022-12-18T09:04:19;47;37;
62054;PMS5003;48653;51.742;-1.256;2022-12-18T09:06:45;45;36;
62054;PMS5003;48653;51.742;-1.256;2022-12-18T09:09:10;35;30;
62054;PMS5003;48653;51.742;-1.256;2022-12-18T09:11:36;45;31;
62054;PMS5003;48653;51.742;-1.256;2022-12-18T09:14:01;51;43;
62054;PMS5003;48653;51.742;-1.256;2022-12-18T09:16:27;38;34;
62054;PMS5003;48653;51.742;-1.256;2022-12-18T09:18:52;45;37;
62054;PMS5003;48653;51.742;-1.256;2022-12-18T09:21:18;43;40;
62054;PMS5003;48653;51.742;-1.256;2022-12-18T09:23:43;45;35;
62054;PMS5003;48653;51.742;-1.256;2022-12-18T09:26:09;42;32;
62054;PMS5003;48653;51.742;-1.256;2022-12-18T09:28:34;39;34;
62054;PMS5003;48653;51.742;-1.256;2022-12-18T09:31:03;47;34;
62054;PMS5003;48653;51.742;-1.256;2022-12-18T09:33:25;45;35;
62054;PMS5003;48653;51.742;-1.256;2022-12-18T09:35:50;41;31;
62054;PMS5003;48653;51.742;-1.256;2022-12-18T09:38:17;48;40;
62054;PMS5003;48653;51.742;-1.256;2022-12-18T09:40:42;43;34;
62054;PMS5003;48653;51.742;-1.256;2022-12-18T09:43:09;43;38;
62054;PMS5003;48653;51.742;-1.256;2022-12-18T09:47:57;51;39;
62054;PMS5003;48653;51.742;-1.256;2022-12-18T09:50:29;47;40;
62054;PMS5003;48653;51.742;-1.256;2022-12-18T09:52:49;52;41;
62054;PMS5003;48653;51.742;-1.256;2022-12-18T09:55:16;50;40;
62054;PMS5003;48653;51.742;-1.256;2022-12-18T09:57:42;47;38;
62054;PMS5003;48653;51.742;-1.256;2022-12-18T10:02:30;55;41;
62054;PMS5003;48653;51.742;-1.256;2022-12-18T10:07:22;50;42;
62054;PMS5003;48653;51.742;-1.256;2022-12-18T10:09:47;50;40;
62054;PMS5003;48653;51.742;-1.256;2022-12-18T10:12:12;59;41;
62054;PMS5003;48653;51.742;-1.256;2022-12-18T10:14:40;53;43;
62054;PMS5003;48653;51.742;-1.256;2022-12-18T10:17:05;67;51;
62054;PMS5003;48653;51.742;-1.256;2022-12-18T10:19:34;56;48;
62054;PMS5003;48653;51.742;-1.256;2022-12-18T10:21:56;63;54;
62054;PMS5003;48653;51.742;-1.256;2022-12-18T10:24:21;60;47;
62054;PMS5003;48653;51.742;-1.256;2022-12-18T10:26:45;57;48;
62054;PMS5003;48653;51.742;-1.256;2022-12-18T10:29:11;58;49;
62054;PMS5003;48653;51.742;-1.256;2022-12-18T10:31:35;64;50;
62054;PMS5003;48653;51.742;-1.256;2022-12-18T10:34:01;54;46;
62054;PMS5003;48653;51.742;-1.256;2022-12-18T10:36:26;53;44;
62054;PMS5003;48653;51.742;-1.256;2022-12-18T10:38:51;52;44;
62054;PMS5003;48653;51.742;-1.256;2022-12-18T10:41:23;52;44;
62054;PMS5003;48653;51.742;-1.256;2022-12-18T10:43:42;69;53;
62054;PMS5003;48653;51.742;-1.256;2022-12-18T10:46:12;71;55;
62054;PMS5003;48653;51.742;-1.256;2022-12-18T10:48:33;51;42;
62054;PMS5003;48653;51.742;-1.256;2022-12-18T10:50:58;50;44;
62054;PMS5003;48653;51.742;-1.256;2022-12-18T10:53:24;61;49;
62054;PMS5003;48653;51.742;-1.256;2022-12-18T10:55:49;54;41;
62054;PMS5003;48653;51.742;-1.256;2022-12-18T10:58:18;55;47;
62054;PMS5003;48653;51.742;-1.256;2022-12-18T11:00:40;53;44;
62054;PMS5003;48653;51.742;-1.256;2022-12-18T11:03:07;60;49;
62054;PMS5003;48653;51.742;-1.256;2022-12-18T11:05:31;53;43;
62054;PMS5003;48653;51.742;-1.256;2022-12-18T11:07:56;61;49;
62054;PMS5003;48653;51.742;-1.256;2022-12-18T11:10:22;52;45;
62054;PMS5003;48653;51.742;-1.256;2022-12-18T11:12:47;55;49;
62054;PMS5003;48653;51.742;-1.256;2022-12-18T11:15:19;49;44;
62054;PMS5003;48653;51.742;-1.256;2022-12-18T11:17:38;54;45;
62054;PMS5003;48653;51.742;-1.256;2022-12-18T11:20:04;56;45;
62054;PMS5003;48653;51.742;-1.256;2022-12-18T11:24:59;65;47;
62054;PMS5003;48653;51.742;-1.256;2022-12-18T11:27:24;58;49;
62054;PMS5003;48653;51.742;-1.256;2022-12-18T11:29:44;63;54;
62054;PMS5003;48653;51.742;-1.256;2022-12-18T11:34:35;59;49;
62054;PMS5003;48653;51.742;-1.256;2022-12-18T11:37:07;51;48;
62054;PMS5003;48653;51.742;-1.256;2022-12-18T11:39:30;64;54;
62054;PMS5003;48653;51.742;-1.256;2022-12-18T11:41:52;69;56;
62054;PMS5003;48653;51.742;-1.256;2022-12-18T11:44:18;59;49;
62054;PMS5003;48653;51.742;-1.256;2022-12-18T11:49:11;61;53;
62054;PMS5003;48653;51.742;-1.256;2022-12-18T11:51:41;69;58;
62054;PMS5003;48653;51.742;-1.256;2022-12-18T11:53:59;58;46;
62054;PMS5003;48653;51.742;-1.256;2022-12-18T11:56:27;70;57;
62054;PMS5003;48653;51.742;-1.256;2022-12-18T11:58:50;61;53;
62054;PMS5003;48653;51.742;-1.256;2022-12-18T12:01:18;72;56;
62054;PMS5003;48653;51.742;-1.256;2022-12-18T12:03:47;68;53;
62054;PMS5003;48653;51.742;-1.256;2022-12-18T12:06:08;61;50;
62054;PMS5003;48653;51.742;-1.256;2022-12-18T12:08:36;58;55;
62054;PMS5003;48653;51.742;-1.256;2022-12-18T12:10:59;70;60;
62054;PMS5003;48653;51.742;-1.256;2022-12-18T12:13:28;68;56;
62054;PMS5003;48653;51.742;-1.256;2022-12-18T12:15:51;60;53;
62054;PMS5003;48653;51.742;-1.256;2022-12-18T12:18:18;63;58;
62054;PMS5003;48653;51.742;-1.256;2022-12-18T12:23:06;61;49;
62054;PMS5003;48653;51.742;-1.256;2022-12-18T12:25:33;63;55;
62054;PMS5003;48653;51.742;-1.256;2022-12-18T12:27:58;65;47;
62054;PMS5003;48653;51.742;-1.256;2022-12-18T12:30:22;56;47;
62054;PMS5003;48653;51.742;-1.256;2022-12-18T12:35:17;68;62;
62054;PMS5003;48653;51.742;-1.256;2022-12-18T12:37:39;63;54;
62054;PMS5003;48653;51.742;-1.256;2022-12-18T12:40:03;73;62;
62054;PMS5003;48653;51.742;-1.256;2022-12-18T12:42:30;59;52;
62054;PMS5003;48653;51.742;-1.256;2022-12-18T12:44:55;64;54;
62054;PMS5003;48653;51.742;-1.256;2022-12-18T12:47:20;61;55;
62054;PMS5003;48653;51.742;-1.256;2022-12-18T12:49:45;58;53;
62054;PMS5003;48653;51.742;-1.256;2022-12-18T12:52:11;68;56;
62054;PMS5003;48653;51.742;-1.256;2022-12-18T12:59:27;64;53;
62054;PMS5003;48653;51.742;-1.256;2022-12-18T13:04:19;64;54;
62054;PMS5003;48653;51.742;-1.256;2022-12-18T13:06:44;66;56;
62054;PMS5003;48653;51.742;-1.256;2022-12-18T13:09:08;57;52;
62054;PMS5003;48653;51.742;-1.256;2022-12-18T13:11:37;68;58;
62054;PMS5003;48653;51.742;-1.256;2022-12-18T13:13:59;72;54;
62054;PMS5003;48653;51.742;-1.256;2022-12-18T13:21:17;66;55;
62054;PMS5003;48653;51.742;-1.256;2022-12-18T13:31:03;58;50;
62054;PMS5003;48653;51.742;-1.256;2022-12-18T13:35:58;56;49;
62054;PMS5003;48653;51.742;-1.256;2022-12-18T13:45:36;58;46;
62054;PMS5003;48653;51.742;-1.256;2022-12-18T13:47:55;60;50;
62054;PMS5003;48653;51.742;-1.256;2022-12-18T13:50:22;54;47;
62054;PMS5003;48653;51.742;-1.256;2022-12-18T13:52:46;56;47;
62054;PMS5003;48653;51.742;-1.256;2022-12-18T13:55:14;50;43;
62054;PMS5003;48653;51.742;-1.256;2022-12-18T13:57:37;56;47;
62054;PMS5003;48653;51.742;-1.256;2022-12-18T14:02:28;59;48;
62054;PMS5003;48653;51.742;-1.256;2022-12-18T14:04:54;61;48;
62054;PMS5003;48653;51.742;-1.256;2022-12-18T14:07:19;48;45;
62054;PMS5003;48653;51.742;-1.256;2022-12-18T14:09:45;53;48;
62054;PMS5003;48653;51.742;-1.256;2022-12-18T14:12:14;46;38;
62054;PMS5003;48653;51.742;-1.256;2022-12-18T14:14:36;52;44;
62054;PMS5003;48653;51.742;-1.256;2022-12-18T14:17:01;42;36;
62054;PMS5003;48653;51.742;-1.256;2022-12-18T14:19:27;45;39;
62054;PMS5003;48653;51.742;-1.256;2022-12-18T14:21:52;43;38;
62054;PMS5003;48653;51.742;-1.256;2022-12-18T14:24:19;47;42;
62054;PMS5003;48653;51.742;-1.256;2022-12-18T14:26:44;39;35;
62054;PMS5003;48653;51.742;-1.256;2022-12-18T14:29:19;44;38;
62054;PMS5003;48653;51.742;-1.256;2022-12-18T14:31:35;42;37;
62054;PMS5003;48653;51.742;-1.256;2022-12-18T14:34:01;41;35;
62054;PMS5003;48653;51.742;-1.256;2022-12-18T14:36:31;39;38;
62054;PMS5003;48653;51.742;-1.256;2022-12-18T14:38:51;40;35;
62054;PMS5003;48653;51.742;-1.256;2022-12-18T14:41:17;38;35;
62054;PMS5003;48653;51.742;-1.256;2022-12-18T14:43:43;35;29;
62054;PMS5003;48653;51.742;-1.256;2022-12-18T14:48:35;34;28;
62054;PMS5003;48653;51.742;-1.256;2022-12-18T14:51:00;37;31;
62054;PMS5003;48653;51.742;-1.256;2022-12-18T14:53:28;38;33;
62054;PMS5003;48653;51.742;-1.256;2022-12-18T14:55:49;28;28;
62054;PMS5003;48653;51.742;-1.256;2022-12-18T14:58:15;29;26;
62054;PMS5003;48653;51.742;-1.256;2022-12-18T15:00:41;32;28;
62054;PMS5003;48653;51.742;-1.256;2022-12-18T15:03:07;25;24;
62054;PMS5003;48653;51.742;-1.256;2022-12-18T15:05:32;25;21;
62054;PMS5003;48653;51.742;-1.256;2022-12-18T15:10:23;26;23;
62054;PMS5003;48653;51.742;-1.256;2022-12-18T15:17:39;17;16;
62054;PMS5003;48653;51.742;-1.256;2022-12-18T15:20:08;21;20;
62054;PMS5003;48653;51.742;-1.256;2022-12-18T15:22:30;21;21;
62054;PMS5003;48653;51.742;-1.256;2022-12-18T15:27:23;23;21;
62054;PMS5003;48653;51.742;-1.256;2022-12-18T15:32:15;16;16;
62054;PMS5003;48653;51.742;-1.256;2022-12-18T15:34:37;20;15;
62054;PMS5003;48653;51.742;-1.256;2022-12-18T15:37:03;17;16;
62054;PMS5003;48653;51.742;-1.256;2022-12-18T15:39:29;17;15;
62054;PMS5003;48653;51.742;-1.256;2022-12-18T15:41:54;21;21;
62054;PMS5003;48653;51.742;-1.256;2022-12-18T15:44:21;18;17;
62054;PMS5003;48653;51.742;-1.256;2022-12-18T15:46:47;21;18;
62054;PMS5003;48653;51.742;-1.256;2022-12-18T15:49:10;16;15;
62054;PMS5003;48653;51.742;-1.256;2022-12-18T15:51:36;21;18;
62054;PMS5003;48653;51.742;-1.256;2022-12-18T15:54:02;18;17;
62054;PMS5003;48653;51.742;-1.256;2022-12-18T15:56:27;17;17;
62054;PMS5003;48653;51.742;-1.256;2022-12-18T15:58:53;14;14;
62054;PMS5003;48653;51.742;-1.256;2022-12-18T16:01:18;14;14;
62054;PMS5003;48653;51.742;-1.256;2022-12-18T16:03:53;15;13;
62054;PMS5003;48653;51.742;-1.256;2022-12-18T16:06:09;16;15;
62054;PMS5003;48653;51.742;-1.256;2022-12-18T16:08:34;15;15;
62054;PMS5003;48653;51.742;-1.256;2022-12-18T16:10:59;16;16;
62054;PMS5003;48653;51.742;-1.256;2022-12-18T16:13:25;16;14;
62054;PMS5003;48653;51.742;-1.256;2022-12-18T16:15:51;16;14;
62054;PMS5003;48653;51.742;-1.256;2022-12-18T16:18:17;14;14;
62054;PMS5003;48653;51.742;-1.256;2022-12-18T16:20:42;13;13;
62054;PMS5003;48653;51.742;-1.256;2022-12-18T16:23:07;14;14;
62054;PMS5003;48653;51.742;-1.256;2022-12-18T16:25:33;18;15;
62054;PMS5003;48653;51.742;-1.256;2022-12-18T16:27:59;18;15;
62054;PMS5003;48653;51.742;-1.256;2022-12-18T16:30:25;14;13;
62054;PMS5003;48653;51.742;-1.256;2022-12-18T16:32:50;14;13;
62054;PMS5003;48653;51.742;-1.256;2022-12-18T16:35:15;15;14;
62054;PMS5003;48653;51.742;-1.256;2022-12-18T16:37:40;17;15;
62054;PMS5003;48653;51.742;-1.256;2022-12-18T16:40:06;18;17;
62054;PMS5003;48653;51.742;-1.256;2022-12-18T16:42:31;19;18;
62054;PMS5003;48653;51.742;-1.256;2022-12-18T16:44:56;19;15;
62054;PMS5003;48653;51.742;-1.256;2022-12-18T16:47:21;21;17;
62054;PMS5003;48653;51.742;-1.256;2022-12-18T16:49:46;14;14;
62054;PMS5003;48653;51.742;-1.256;2022-12-18T16:52:12;17;14;
62054;PMS5003;48653;51.742;-1.256;2022-12-18T16:54:37;14;12;
62054;PMS5003;48653;51.742;-1.256;2022-12-18T16:57:03;13;13;
62054;PMS5003;48653;51.742;-1.256;2022-12-18T16:59:28;15;14;
62054;PMS5003;48653;51.742;-1.256;2022-12-18T17:01:53;11;11;
62054;PMS5003;48653;51.742;-1.256;2022-12-18T17:04:18;10;10;